createdAt,value
2017-10-11T00:02:19.672Z,4.60
2017-10-11T00:04:48.381Z,4.45
2017-10-11T00:07:17.112Z,4.07
2017-10-11T00:09:46.039Z,3.75
2017-10-11T00:12:14.736Z,3.95
2017-10-11T00:14:44.262Z,5.25
2017-10-11T00:17:12.982Z,5.65
2017-10-11T00:19:41.934Z,5.28
2017-10-11T00:22:10.919Z,5.37
2017-10-11T00:24:39.979Z,4.85
2017-10-11T00:27:08.711Z,4.82
2017-10-11T00:29:37.462Z,4.65
2017-10-11T00:32:06.178Z,4.18
2017-10-11T00:34:34.935Z,4.60
2017-10-11T00:37:03.900Z,4.62
2017-10-11T00:39:32.626Z,3.53
2017-10-11T00:42:01.123Z,4.30
2017-10-11T00:44:30.598Z,3.90
2017-10-11T00:46:59.041Z,4.15
2017-10-11T00:49:27.970Z,4.18
2017-10-11T00:51:56.671Z,3.53
2017-10-11T00:54:26.185Z,4.25
2017-10-11T00:56:54.450Z,4.47
2017-10-11T00:59:22.809Z,4.62
2017-10-11T01:01:51.812Z,4.35
2017-10-11T01:04:20.551Z,3.87
2017-10-11T01:06:49.363Z,4.82
2017-10-11T01:09:18.136Z,3.95
2017-10-11T01:11:46.818Z,4.93
2017-10-11T01:14:15.778Z,4.85
2017-10-11T01:16:43.806Z,3.58
2017-10-11T01:19:12.224Z,4.75
2017-10-11T01:21:40.634Z,3.90
2017-10-11T01:24:10.373Z,3.90
2017-10-11T01:26:39.091Z,3.80
2017-10-11T01:29:07.306Z,4.57
2017-10-11T01:31:36.121Z,4.07
2017-10-11T01:34:05.170Z,5.07
2017-10-11T01:36:33.170Z,4.15
2017-10-11T01:39:01.439Z,4.00
2017-10-11T01:41:30.492Z,4.07
2017-10-11T01:43:58.749Z,4.18
2017-10-11T01:46:27.142Z,3.83
2017-10-11T01:48:55.219Z,4.50
2017-10-11T01:51:23.619Z,4.53
2017-10-11T01:53:52.209Z,3.90
2017-10-11T01:56:20.287Z,3.75
2017-10-11T01:58:49.247Z,3.55
2017-10-11T02:01:17.980Z,3.20
2017-10-11T02:03:47.462Z,3.60
2017-10-11T02:06:16.109Z,3.62
2017-10-11T02:08:44.804Z,3.47
2017-10-11T02:11:13.740Z,4.05
2017-10-11T02:13:42.681Z,4.05
2017-10-11T02:16:11.433Z,3.47
2017-10-11T02:18:40.026Z,3.28
2017-10-11T02:21:08.963Z,3.45
2017-10-11T02:23:37.678Z,3.62
2017-10-11T02:26:06.429Z,3.70
2017-10-11T02:28:35.387Z,3.42
2017-10-11T02:31:05.087Z,4.80
2017-10-11T02:33:34.395Z,4.30
2017-10-11T02:36:06.267Z,4.30
2017-10-11T02:38:35.020Z,4.80
2017-10-11T02:41:03.769Z,4.60
2017-10-11T02:43:32.707Z,4.80
2017-10-11T02:46:01.478Z,5.10
2017-10-11T02:48:30.201Z,4.20
2017-10-11T02:50:59.907Z,3.70
2017-10-11T02:53:29.635Z,3.35
2017-10-11T02:55:58.379Z,3.80
2017-10-11T02:58:27.062Z,4.00
2017-10-11T03:00:55.870Z,4.10
2017-10-11T03:03:24.581Z,3.92
2017-10-11T03:05:53.272Z,3.58
2017-10-11T03:08:22.230Z,3.35
2017-10-11T03:10:50.968Z,3.87
2017-10-11T03:13:19.711Z,5.30
2017-10-11T03:15:48.661Z,4.05
2017-10-11T03:18:17.356Z,4.10
2017-10-11T03:20:46.301Z,3.50
2017-10-11T03:23:15.997Z,5.10
2017-10-11T03:25:44.679Z,5.10
2017-10-11T03:28:13.667Z,4.45
2017-10-11T03:30:42.743Z,4.53
2017-10-11T03:33:11.434Z,3.62
2017-10-11T03:35:39.828Z,4.37
2017-10-11T03:38:08.821Z,3.90
2017-10-11T03:40:37.743Z,4.82
2017-10-11T03:43:07.259Z,4.25
2017-10-11T03:45:36.176Z,5.47
2017-10-11T03:48:05.919Z,5.28
2017-10-11T03:50:34.301Z,4.93
2017-10-11T03:53:02.994Z,3.28
2017-10-11T03:55:31.704Z,3.90
2017-10-11T03:58:00.279Z,5.62
2017-10-11T04:00:28.877Z,4.35
2017-10-11T04:02:58.564Z,4.40
2017-10-11T04:05:27.542Z,4.40
2017-10-11T04:07:56.242Z,3.97
2017-10-11T04:10:24.968Z,3.80
2017-10-11T04:12:54.459Z,4.45
2017-10-11T04:15:23.166Z,3.58
2017-10-11T04:17:51.935Z,3.92
2017-10-11T04:20:21.485Z,3.75
2017-10-11T04:22:50.230Z,3.97
2017-10-11T04:25:18.957Z,3.20
2017-10-11T04:27:47.491Z,3.97
2017-10-11T04:30:16.032Z,4.30
2017-10-11T04:32:44.535Z,4.62
2017-10-11T04:35:13.286Z,4.50
2017-10-11T04:37:41.793Z,4.25
2017-10-11T04:40:10.377Z,4.30
2017-10-11T04:42:38.934Z,3.75
2017-10-11T04:45:07.432Z,4.32
2017-10-11T04:47:35.963Z,5.72
2017-10-11T04:50:05.248Z,4.35
2017-10-11T04:52:33.942Z,4.10
2017-10-11T04:55:02.629Z,3.83
2017-10-11T04:57:31.353Z,3.80
2017-10-11T05:00:01.688Z,3.90
2017-10-11T05:02:30.409Z,4.07
2017-10-11T05:04:59.143Z,3.92
2017-10-11T05:07:28.829Z,4.00
2017-10-11T05:09:57.554Z,3.40
2017-10-11T05:12:26.292Z,3.37
2017-10-11T05:14:55.046Z,3.85
2017-10-11T05:17:24.059Z,3.80
2017-10-11T05:19:52.779Z,3.60
2017-10-11T05:22:21.484Z,4.18
2017-10-11T05:24:50.493Z,4.60
2017-10-11T05:27:19.247Z,3.90
2017-10-11T05:29:48.987Z,4.43
2017-10-11T05:32:18.510Z,3.08
2017-10-11T05:34:47.422Z,3.28
2017-10-11T05:37:16.225Z,3.33
2017-10-11T05:39:44.936Z,3.70
2017-10-11T05:42:13.662Z,3.33
2017-10-11T05:44:42.378Z,4.15
2017-10-11T05:47:11.311Z,3.90
2017-10-11T05:49:40.748Z,3.83
2017-10-11T05:52:10.236Z,3.42
2017-10-11T05:54:39.246Z,3.37
2017-10-11T05:57:07.616Z,3.58
2017-10-11T05:59:37.223Z,4.43
2017-10-11T06:02:05.931Z,3.15
2017-10-11T06:04:34.639Z,4.07
2017-10-11T06:07:03.358Z,3.72
2017-10-11T06:09:32.073Z,4.03
2017-10-11T06:12:00.934Z,3.33
2017-10-11T06:14:29.734Z,3.85
2017-10-11T06:16:58.679Z,3.72
2017-10-11T06:19:27.628Z,3.50
2017-10-11T06:21:56.395Z,3.90
2017-10-11T06:24:25.355Z,3.62
2017-10-11T06:26:54.116Z,3.62
2017-10-11T06:29:22.860Z,3.10
2017-10-11T06:31:51.591Z,3.03
2017-10-11T06:34:21.064Z,3.28
2017-10-11T06:36:49.796Z,2.80
2017-10-11T06:39:18.767Z,3.17
2017-10-11T06:41:48.266Z,2.80
2017-10-11T06:44:17.350Z,2.95
2017-10-11T06:46:46.089Z,3.37
2017-10-11T06:49:14.877Z,3.00
2017-10-11T06:51:43.630Z,3.10
2017-10-11T06:54:12.114Z,2.30
2017-10-11T06:56:40.696Z,2.70
2017-10-11T06:59:08.993Z,2.97
2017-10-11T07:01:37.463Z,2.23
2017-10-11T07:04:05.965Z,2.13
2017-10-11T07:06:34.504Z,2.13
2017-10-11T07:09:03.017Z,2.70
2017-10-11T07:11:31.476Z,2.00
2017-10-11T07:13:59.978Z,2.27
2017-10-11T07:16:28.454Z,2.77
2017-10-11T07:18:56.934Z,2.13
2017-10-11T07:21:25.272Z,2.30
2017-10-11T07:23:54.519Z,1.80
2017-10-11T07:26:23.009Z,2.30
2017-10-11T07:28:51.517Z,1.80
2017-10-11T07:31:19.991Z,2.03
2017-10-11T07:33:48.449Z,2.20
2017-10-11T07:36:17.169Z,1.80
2017-10-11T07:38:45.618Z,2.03
2017-10-11T07:41:14.307Z,2.00
2017-10-11T07:43:42.794Z,1.20
2017-10-11T07:46:11.265Z,1.93
2017-10-11T07:48:39.581Z,1.97
2017-10-11T07:51:08.124Z,2.27
2017-10-11T07:53:36.603Z,2.00
2017-10-11T07:56:05.842Z,1.57
2017-10-11T07:58:34.309Z,1.80
2017-10-11T08:01:01.915Z,1.73
2017-10-11T08:03:30.373Z,1.43
2017-10-11T08:05:58.842Z,1.57
2017-10-11T08:08:27.301Z,1.53
2017-10-11T08:10:55.411Z,1.40
2017-10-11T08:13:23.896Z,1.53
2017-10-11T08:15:52.365Z,1.40
2017-10-11T08:18:20.822Z,1.63
2017-10-11T08:20:49.320Z,1.57
2017-10-11T08:23:17.785Z,1.50
2017-10-11T08:25:46.240Z,1.40
2017-10-11T08:28:14.722Z,0.83
2017-10-11T08:30:43.167Z,1.20
2017-10-11T08:33:11.614Z,0.93
2017-10-11T08:35:40.072Z,1.20
2017-10-11T08:38:08.519Z,1.47
2017-10-11T08:40:37.034Z,1.03
2017-10-11T08:43:05.489Z,1.37
2017-10-11T08:45:34.701Z,1.20
2017-10-11T08:48:03.188Z,1.07
2017-10-11T08:50:31.477Z,1.17
2017-10-11T08:52:59.926Z,1.20
2017-10-11T08:55:29.194Z,1.00
2017-10-11T08:57:57.630Z,1.30
2017-10-11T09:00:26.085Z,1.20
2017-10-11T09:02:54.565Z,0.80
2017-10-11T09:05:23.023Z,1.23
2017-10-11T09:07:51.494Z,1.30
2017-10-11T09:10:19.943Z,1.13
2017-10-11T09:12:48.419Z,1.83
2017-10-11T09:15:16.901Z,1.40
2017-10-11T09:17:45.146Z,1.57
2017-10-11T09:20:13.583Z,2.00
2017-10-11T09:22:42.074Z,1.70
2017-10-11T09:25:10.528Z,2.30
2017-10-11T09:27:38.992Z,2.63
2017-10-11T09:30:07.489Z,2.03
2017-10-11T09:32:35.749Z,2.47
2017-10-11T09:35:04.193Z,2.30
2017-10-11T09:37:32.502Z,2.40
2017-10-11T09:40:00.794Z,2.47
2017-10-11T09:42:29.240Z,3.27
2017-10-11T09:44:57.695Z,2.40
2017-10-11T09:47:26.154Z,2.30
2017-10-11T09:49:54.604Z,2.37
2017-10-11T09:52:23.851Z,2.00
2017-10-11T09:54:52.301Z,2.67
2017-10-11T09:57:20.748Z,2.63
2017-10-11T09:59:49.034Z,2.20
2017-10-11T10:02:17.468Z,2.30
2017-10-11T10:04:45.927Z,2.63
2017-10-11T10:07:14.449Z,2.77
2017-10-11T10:09:42.896Z,2.07
2017-10-11T10:12:11.332Z,2.60
2017-10-11T10:14:39.862Z,2.73
2017-10-11T10:17:08.331Z,2.50
2017-10-11T10:19:37.543Z,2.50
2017-10-11T10:22:06.046Z,2.10
2017-10-11T10:24:34.525Z,2.20
2017-10-11T10:27:02.964Z,2.73
2017-10-11T10:29:32.193Z,2.07
2017-10-11T10:32:00.648Z,2.23
2017-10-11T10:34:29.845Z,2.80
2017-10-11T10:36:59.092Z,2.30
2017-10-11T10:39:27.536Z,2.30
2017-10-11T10:41:56.744Z,1.63
2017-10-11T10:44:25.188Z,2.40
2017-10-11T10:46:53.645Z,1.50
2017-10-11T10:49:22.096Z,1.93
2017-10-11T10:51:50.564Z,2.27
2017-10-11T10:54:18.992Z,1.80
2017-10-11T10:56:47.409Z,1.60
2017-10-11T10:59:15.845Z,1.87
2017-10-11T11:01:44.083Z,1.60
2017-10-11T11:04:13.298Z,1.70
2017-10-11T11:06:41.734Z,2.10
2017-10-11T11:09:10.203Z,2.33
2017-10-11T11:11:38.645Z,1.50
2017-10-11T11:14:07.103Z,1.90
2017-10-11T11:16:36.312Z,1.97
2017-10-11T11:19:04.591Z,1.70
2017-10-11T11:21:33.066Z,1.77
2017-10-11T11:24:02.266Z,1.93
2017-10-11T11:26:31.483Z,2.00
2017-10-11T11:28:59.980Z,1.70
2017-10-11T11:31:28.432Z,2.53
2017-10-11T11:33:56.855Z,1.90
2017-10-11T11:36:25.334Z,1.67
2017-10-11T11:38:53.787Z,1.70
2017-10-11T11:41:22.214Z,2.00
2017-10-11T11:43:50.677Z,1.83
2017-10-11T11:46:19.146Z,1.80
2017-10-11T11:48:47.590Z,2.10
2017-10-11T11:51:16.786Z,2.30
2017-10-11T11:53:45.231Z,1.77
2017-10-11T11:56:13.462Z,1.87
2017-10-11T11:58:41.894Z,1.67
2017-10-11T12:01:10.367Z,1.90
2017-10-11T12:03:38.801Z,1.70
2017-10-11T12:06:07.247Z,1.50
2017-10-11T12:08:35.689Z,2.80
2017-10-11T12:11:04.142Z,1.50
2017-10-11T12:13:33.363Z,1.83
2017-10-11T12:16:01.827Z,2.07
2017-10-11T12:18:30.240Z,1.50
2017-10-11T12:20:58.669Z,1.77
2017-10-11T12:23:27.131Z,1.40
2017-10-11T12:25:55.588Z,1.40
2017-10-11T12:28:24.008Z,2.13
2017-10-11T12:30:52.710Z,1.70
2017-10-11T12:33:21.927Z,1.50
2017-10-11T12:35:50.380Z,1.60
2017-10-11T12:38:18.838Z,1.63
2017-10-11T12:40:47.267Z,1.90
2017-10-11T12:43:15.691Z,1.50
2017-10-11T12:45:44.130Z,1.90
2017-10-11T12:48:13.354Z,1.30
2017-10-11T12:50:41.441Z,1.40
2017-10-11T12:53:09.913Z,1.53
2017-10-11T12:55:38.343Z,1.50
2017-10-11T12:58:06.776Z,1.97
2017-10-11T13:00:35.234Z,1.57
2017-10-11T13:03:03.698Z,2.60
2017-10-11T13:05:32.910Z,2.40
2017-10-11T13:08:01.383Z,1.57
2017-10-11T13:10:29.845Z,1.80
2017-10-11T13:12:58.693Z,1.60
2017-10-11T13:15:27.131Z,1.67
2017-10-11T13:17:56.349Z,2.00
2017-10-11T13:20:24.797Z,1.90
2017-10-11T13:22:53.243Z,2.00
2017-10-11T13:25:21.657Z,2.90
2017-10-11T13:27:50.115Z,1.90
2017-10-11T13:30:18.559Z,1.90
2017-10-11T13:32:46.797Z,2.00
2017-10-11T13:35:15.242Z,2.27
2017-10-11T13:37:43.694Z,2.83
2017-10-11T13:40:12.127Z,2.70
2017-10-11T13:42:40.552Z,2.17
2017-10-11T13:45:09.023Z,2.20
2017-10-11T13:47:37.450Z,2.50
2017-10-11T13:50:05.881Z,2.60
2017-10-11T13:52:35.103Z,1.93
2017-10-11T13:55:03.533Z,2.70
2017-10-11T13:57:31.943Z,2.47
2017-10-11T14:00:01.159Z,2.07
2017-10-11T14:02:29.584Z,2.13
2017-10-11T14:04:57.834Z,2.03
2017-10-11T14:07:26.818Z,2.80
2017-10-11T14:09:55.220Z,2.90
2017-10-11T14:12:23.660Z,2.80
2017-10-11T14:14:52.856Z,2.30
2017-10-11T14:17:21.860Z,2.47
2017-10-11T14:19:50.277Z,3.00
2017-10-11T14:22:18.691Z,2.83
2017-10-11T14:24:47.132Z,2.60
2017-10-11T14:27:15.368Z,2.70
2017-10-11T14:29:43.787Z,2.53
2017-10-11T14:32:12.231Z,2.33
2017-10-11T14:34:41.430Z,2.87
2017-10-11T14:37:09.841Z,2.97
2017-10-11T14:39:38.290Z,3.17
2017-10-11T14:42:07.471Z,3.27
2017-10-11T14:44:35.871Z,2.97
2017-10-11T14:47:05.065Z,2.90
2017-10-11T14:49:34.240Z,2.60
2017-10-11T14:52:02.648Z,3.77
2017-10-11T14:54:31.842Z,3.60
2017-10-11T14:57:01.016Z,2.77
2017-10-11T14:59:29.421Z,2.27
2017-10-11T15:01:58.608Z,3.10
2017-10-11T15:04:27.015Z,3.00
2017-10-11T15:06:55.435Z,3.57
2017-10-11T15:09:23.901Z,3.30
2017-10-11T15:11:52.549Z,3.67
2017-10-11T15:14:21.729Z,3.20
2017-10-11T15:16:50.189Z,3.07
2017-10-11T15:19:18.595Z,3.90
2017-10-11T15:21:47.007Z,2.87
2017-10-11T15:24:15.678Z,3.17
2017-10-11T15:26:44.850Z,2.73
2017-10-11T15:29:13.084Z,2.70
2017-10-11T15:31:41.701Z,2.60
2017-10-11T15:34:10.097Z,3.40
2017-10-11T15:36:38.494Z,3.30
2017-10-11T15:39:07.694Z,4.07
2017-10-11T15:41:36.861Z,3.60
2017-10-11T15:44:05.273Z,3.67
2017-10-11T15:46:33.709Z,3.37
2017-10-11T15:49:02.115Z,3.27
2017-10-11T15:51:30.517Z,3.10
2017-10-11T15:53:59.698Z,3.70
2017-10-11T15:56:28.111Z,4.80
2017-10-11T15:58:56.512Z,4.50
2017-10-11T16:01:24.953Z,4.50
2017-10-11T16:03:54.133Z,4.30
2017-10-11T16:06:22.557Z,4.00
2017-10-11T16:08:50.986Z,4.40
2017-10-11T16:11:19.393Z,4.00
2017-10-11T16:13:48.564Z,4.13
2017-10-11T16:16:16.998Z,4.53
2017-10-11T16:18:45.393Z,4.83
2017-10-11T16:21:13.790Z,6.80
2017-10-11T16:23:42.216Z,12.40
2017-10-11T16:26:11.423Z,7.57
2017-10-11T16:28:40.102Z,5.70
2017-10-11T16:31:08.579Z,5.93
2017-10-11T16:33:37.795Z,7.73
2017-10-11T16:36:06.980Z,7.40
2017-10-11T16:38:37.043Z,6.63
2017-10-11T16:41:05.466Z,6.23
2017-10-11T16:43:33.875Z,5.43
2017-10-11T16:46:03.251Z,6.53
2017-10-11T17:04:06.136Z,6.30
2017-10-11T17:06:36.124Z,6.00
2017-10-11T17:11:37.990Z,5.70
2017-10-11T17:14:07.147Z,5.20
2017-10-11T17:16:37.428Z,6.47
2017-10-11T17:19:05.970Z,6.20
2017-10-11T17:24:08.603Z,6.33
2017-10-11T17:31:52.082Z,4.67
2017-10-11T17:34:21.495Z,5.13
2017-10-11T17:36:50.659Z,6.10
2017-10-11T17:39:20.958Z,4.57
2017-10-11T17:59:42.398Z,5.20
2017-10-11T18:02:12.126Z,5.17
2017-10-11T18:07:15.263Z,5.90
2017-10-11T18:12:19.915Z,4.97
2017-10-11T18:22:48.201Z,7.50
2017-10-11T19:22:31.427Z,10.40
2017-10-11T19:37:52.180Z,7.43
2017-10-11T19:40:22.386Z,8.70
2017-10-11T20:10:55.353Z,8.65
2017-10-11T20:13:24.311Z,7.70
2017-10-11T20:15:52.975Z,8.75
2017-10-11T20:18:22.363Z,7.85
2017-10-11T20:20:50.933Z,7.95
2017-10-11T20:23:21.046Z,8.10
2017-10-11T20:25:50.923Z,7.70
2017-10-11T20:30:52.427Z,8.13
2017-10-11T20:33:24.603Z,8.70
2017-10-11T20:35:53.559Z,8.27
2017-10-11T21:26:54.842Z,8.20
2017-10-11T21:29:26.911Z,7.22
2017-10-11T21:39:35.706Z,6.85
2017-10-11T21:42:05.086Z,6.55
2017-10-11T22:13:09.911Z,6.75
2017-10-11T22:18:16.534Z,8.20
2017-10-11T22:23:18.385Z,6.22
2017-10-11T22:28:23.327Z,6.10
2017-10-11T22:36:00.222Z,6.90
2017-10-11T23:04:20.313Z,6.05
